Time;durP1;ratioP1;P1;durP2;ratioP2;P2;SDS_P1;SDS_P2;PMS_P1;PMS_P2;Temp;Humidity;BMP_temperature;BMP_pressure;BME280_temperature;BME280_humidity;BME280_pressure;Samples;Min_cycle;Max_cycle;Signal;HPM_P1;HPM_P2
2021/06/09 00:00:40;;;;;;;12.10;10.90;;;14.70;99.90;;;;;;5093890;28;20036;-74
2021/06/09 00:03:06;;;;;;;12.73;11.52;;;14.60;99.90;;;;;;5093911;28;20050;-74
2021/06/09 00:05:31;;;;;;;13.40;12.02;;;14.60;99.90;;;;;;5093896;28;20039;-74
2021/06/09 00:07:57;;;;;;;13.43;12.10;;;14.60;99.90;;;;;;5112386;28;20117;-74
2021/06/09 00:10:23;;;;;;;15.15;13.63;;;14.60;99.90;;;;;;5111992;28;20065;-74
2021/06/09 00:12:48;;;;;;;15.25;13.75;;;14.60;99.90;;;;;;5111921;28;20434;-74
2021/06/09 00:15:15;;;;;;;15.23;13.85;;;14.50;99.90;;;;;;5093617;28;20035;-74
2021/06/09 00:17:42;;;;;;;16.65;14.95;;;14.50;99.90;;;;;;5093700;28;20036;-74
2021/06/09 00:20:11;;;;;;;16.08;14.48;;;14.50;99.90;;;;;;5112002;28;20044;-74
2021/06/09 00:22:37;;;;;;;16.55;14.85;;;14.50;99.90;;;;;;5093553;28;20089;-74
2021/06/09 00:25:09;;;;;;;15.27;13.77;;;14.40;99.90;;;;;;5111869;28;20039;-74
2021/06/09 00:27:35;;;;;;;13.88;12.40;;;14.50;99.90;;;;;;5111489;28;20043;-74
2021/06/09 00:30:01;;;;;;;14.43;12.93;;;14.40;99.90;;;;;;5111639;28;20522;-74
2021/06/09 00:32:28;;;;;;;15.95;14.13;;;14.30;99.90;;;;;;5111492;28;20039;-74
2021/06/09 00:34:53;;;;;;;17.13;14.80;;;14.20;99.90;;;;;;5111576;28;20048;-74
2021/06/09 00:37:19;;;;;;;13.73;11.98;;;14.20;99.90;;;;;;5111390;28;20065;-74
2021/06/09 00:39:45;;;;;;;16.90;15.10;;;14.20;99.90;;;;;;5111216;28;20058;-74
2021/06/09 00:42:11;;;;;;;16.67;15.05;;;14.20;99.90;;;;;;5111445;28;20444;-74
2021/06/09 00:44:37;;;;;;;16.83;15.10;;;14.10;99.90;;;;;;5111386;28;20191;-74
2021/06/09 00:47:03;;;;;;;17.25;15.50;;;14.10;99.90;;;;;;5111204;28;20035;-74
2021/06/09 00:49:32;;;;;;;13.10;11.77;;;14.00;99.90;;;;;;5111329;28;20035;-73
2021/06/09 00:51:58;;;;;;;13.45;10.98;;;14.00;99.90;;;;;;5111181;28;20046;-74
2021/06/09 00:54:24;;;;;;;10.15;9.18;;;14.00;99.90;;;;;;5111392;28;20076;-74
2021/06/09 00:56:50;;;;;;;10.45;9.55;;;14.00;99.90;;;;;;5111203;28;20118;-74
2021/06/09 00:59:16;;;;;;;10.52;9.13;;;13.90;99.90;;;;;;5093089;28;20036;-74
2021/06/09 01:01:43;;;;;;;10.75;9.75;;;13.90;99.90;;;;;;5111030;28;20046;-74
2021/06/09 01:04:08;;;;;;;13.63;12.32;;;13.90;99.90;;;;;;5111318;28;20468;-74
2021/06/09 01:06:34;;;;;;;15.48;13.88;;;13.80;99.90;;;;;;5111021;28;20032;-74
2021/06/09 01:09:15;;;;;;;17.02;14.80;;;13.80;99.90;;;;;;5111125;28;20039;-74
2021/06/09 01:11:41;;;;;;;15.55;13.95;;;13.80;99.90;;;;;;5110919;28;20031;-74
2021/06/09 01:14:19;;;;;;;19.50;16.73;;;13.80;99.90;;;;;;5094498;28;20046;-74
2021/06/09 01:16:46;;;;;;;20.92;16.92;;;13.70;99.90;;;;;;5110883;28;20090;-74
2021/06/09 01:19:12;;;;;;;17.02;15.35;;;13.70;99.90;;;;;;5110884;28;20081;-74
2021/06/09 01:21:38;;;;;;;20.48;18.42;;;13.70;99.90;;;;;;5110701;28;20044;-74
2021/06/09 01:24:04;;;;;;;19.15;17.33;;;13.70;99.90;;;;;;5110860;28;20035;-74
2021/06/09 01:26:31;;;;;;;19.65;17.55;;;13.70;99.90;;;;;;5111099;28;20035;-74
2021/06/09 01:28:59;;;;;;;17.25;15.65;;;13.70;99.90;;;;;;5110824;28;20297;-74
2021/06/09 01:31:25;;;;;;;15.38;13.75;;;13.70;99.90;;;;;;5110666;28;20044;-74
2021/06/09 01:34:04;;;;;;;15.98;14.38;;;13.70;99.90;;;;;;5093457;28;20468;-74
2021/06/09 01:36:31;;;;;;;17.15;15.38;;;13.80;99.90;;;;;;5110631;28;20045;-74
2021/06/09 01:38:57;;;;;;;17.02;15.23;;;13.80;99.90;;;;;;5110420;28;20044;-73
2021/06/09 01:41:25;;;;;;;16.08;14.45;;;13.80;99.90;;;;;;5096512;28;20042;-74
2021/06/09 01:44:10;;;;;;;14.43;12.93;;;13.80;99.90;;;;;;5115222;28;20519;-74
2021/06/09 01:46:36;;;;;;;14.77;13.32;;;13.80;99.90;;;;;;5114779;28;20040;-74
2021/06/09 01:49:01;;;;;;;14.55;13.05;;;13.80;99.90;;;;;;5096472;28;20480;-72
2021/06/09 01:51:28;;;;;;;12.75;11.32;;;13.80;99.90;;;;;;5114671;28;20044;-72
2021/06/09 01:53:53;;;;;;;13.50;12.20;;;13.80;99.90;;;;;;5114845;28;20100;-73
2021/06/09 01:56:19;;;;;;;13.90;12.60;;;13.80;99.90;;;;;;5114734;28;20396;-72
2021/06/09 01:58:45;;;;;;;14.82;13.32;;;13.80;99.90;;;;;;5114537;28;20146;-72
2021/06/09 02:01:12;;;;;;;16.58;14.80;;;13.80;99.90;;;;;;5114616;28;20614;-73
2021/06/09 02:03:38;;;;;;;16.92;15.30;;;13.80;99.90;;;;;;5114542;28;20043;-72
2021/06/09 02:06:04;;;;;;;16.30;14.60;;;13.80;99.90;;;;;;5114523;28;20051;-72
2021/06/09 02:08:30;;;;;;;17.55;15.68;;;13.80;99.90;;;;;;5114376;28;20120;-73
2021/06/09 02:10:56;;;;;;;18.10;16.30;;;13.70;99.90;;;;;;5114364;28;20070;-72
2021/06/09 02:13:23;;;;;;;16.45;14.88;;;13.70;99.90;;;;;;5114331;28;20035;-73
2021/06/09 02:15:54;;;;;;;17.05;15.35;;;13.70;99.90;;;;;;5096534;28;20115;-73
2021/06/09 02:18:24;;;;;;;16.38;14.77;;;13.70;99.90;;;;;;5114089;28;20036;-72
2021/06/09 02:20:53;;;;;;;16.50;14.73;;;13.70;99.90;;;;;;5114047;28;20035;-73
2021/06/09 02:23:22;;;;;;;17.77;15.98;;;13.60;99.90;;;;;;5114196;28;20476;-72
2021/06/09 02:25:51;;;;;;;16.45;14.75;;;13.60;99.90;;;;;;5114030;28;20063;-72
2021/06/09 02:28:19;;;;;;;16.20;14.50;;;13.60;99.90;;;;;;5113903;28;20035;-73
2021/06/09 02:30:46;;;;;;;17.13;15.32;;;13.60;99.90;;;;;;5113914;28;20473;-73
2021/06/09 02:33:34;;;;;;;16.65;15.05;;;13.60;99.90;;;;;;5098604;28;20501;-73
2021/06/09 02:36:00;;;;;;;16.45;14.75;;;13.60;99.90;;;;;;5113857;28;20472;-73
2021/06/09 02:38:27;;;;;;;17.67;15.98;;;13.50;99.90;;;;;;5113866;28;20032;-73
2021/06/09 02:40:55;;;;;;;16.98;15.07;;;13.50;99.90;;;;;;5113673;28;20087;-73
2021/06/09 02:43:21;;;;;;;16.77;15.07;;;13.50;99.90;;;;;;5095542;28;20085;-73
2021/06/09 02:45:50;;;;;;;16.20;14.57;;;13.50;99.90;;;;;;5113782;28;20374;-73
2021/06/09 02:48:18;;;;;;;16.23;14.63;;;13.40;99.90;;;;;;5113574;28;20123;-73
2021/06/09 02:50:46;;;;;;;16.63;15.02;;;13.40;99.90;;;;;;5113495;28;20126;-73
2021/06/09 02:54:06;;;;;;;16.25;14.65;;;13.40;99.90;;;;;;5113514;28;20093;-73
2021/06/09 02:56:41;;;;;;;14.80;13.40;;;13.40;99.90;;;;;;5098327;28;20051;-73
2021/06/09 02:59:18;;;;;;;15.80;14.20;;;13.40;99.90;;;;;;5113484;28;20039;-73
2021/06/09 03:02:18;;;;;;;17.48;15.68;;;13.40;99.90;;;;;;5095135;28;20127;-73
2021/06/09 03:04:55;;;;;;;18.25;16.45;;;13.40;99.90;;;;;;5113285;28;20036;-73
2021/06/09 03:07:31;;;;;;;18.80;16.83;;;13.40;99.90;;;;;;5113340;28;20423;-73
2021/06/09 03:10:19;;;;;;;17.63;15.95;;;13.40;99.90;;;;;;5113055;28;20034;-73
2021/06/09 03:12:51;;;;;;;18.88;16.88;;;13.30;99.90;;;;;;5112922;28;20058;-73
2021/06/09 03:15:27;;;;;;;;;;;13.30;99.90;;;;;;5094882;28;20085;-73
2021/06/09 03:17:53;;;;;;;16.38;14.68;;;13.30;99.90;;;;;;5112757;28;19916;-73
2021/06/09 03:20:22;;;;;;;17.73;16.02;;;13.30;99.90;;;;;;5112227;28;20062;-73
2021/06/09 03:23:06;;;;;;;16.48;14.90;;;13.30;99.90;;;;;;5112493;28;20035;-73
2021/06/09 03:26:01;;;;;;;17.70;15.80;;;13.20;99.90;;;;;;5098147;28;20459;-73
2021/06/09 03:28:56;;;;;;;18.55;16.55;;;13.20;99.90;;;;;;5112794;28;20499;-73
2021/06/09 03:31:34;;;;;;;17.92;16.13;;;13.20;99.90;;;;;;5112841;28;20040;-73
2021/06/09 03:34:03;;;;;;;16.80;15.15;;;13.20;99.90;;;;;;5094374;28;20036;-73
2021/06/09 03:36:37;;;;;;;18.00;16.20;;;13.30;99.90;;;;;;5112656;28;20452;-73
2021/06/09 03:39:05;;;;;;;18.05;16.25;;;13.20;99.90;;;;;;5094125;28;20031;-73
2021/06/09 03:41:36;;;;;;;20.95;18.75;;;13.30;99.90;;;;;;5094328;28;20031;-73
2021/06/09 03:44:03;;;;;;;22.25;19.27;;;13.20;99.90;;;;;;5112420;28;20063;-73
2021/06/09 03:46:30;;;;;;;22.40;20.08;;;13.10;99.90;;;;;;5112514;28;20042;-73
2021/06/09 03:48:59;;;;;;;23.73;20.88;;;13.00;99.90;;;;;;5112479;28;20043;-73
2021/06/09 03:51:42;;;;;;;19.48;17.52;;;12.90;99.90;;;;;;5112409;28;20046;-73
2021/06/09 03:54:32;;;;;;;19.92;17.83;;;12.90;99.90;;;;;;5082813;28;20536;-73
2021/06/09 03:57:08;;;;;;;18.73;16.92;;;13.00;99.90;;;;;;5095465;28;20388;-73
2021/06/09 03:59:35;;;;;;;19.17;17.15;;;13.10;99.90;;;;;;5112133;28;20031;-73
2021/06/09 04:02:06;;;;;;;19.42;17.33;;;13.20;99.90;;;;;;5111843;28;20469;-73
2021/06/09 04:04:33;;;;;;;18.65;16.80;;;13.20;99.90;;;;;;5093707;28;20124;-73
2021/06/09 04:07:01;;;;;;;20.85;18.85;;;13.30;99.90;;;;;;5112111;28;20096;-73
2021/06/09 04:09:27;;;;;;;19.83;17.90;;;13.40;99.90;;;;;;5111952;28;20036;-73
2021/06/09 04:11:59;;;;;;;18.73;16.77;;;13.40;99.90;;;;;;5094017;28;20043;-73
2021/06/09 04:14:32;;;;;;;19.00;17.23;;;13.50;99.90;;;;;;5093632;28;20039;-73
2021/06/09 04:17:00;;;;;;;18.75;16.70;;;13.60;99.90;;;;;;5112002;28;20574;-73
2021/06/09 04:19:27;;;;;;;17.77;15.82;;;13.60;99.90;;;;;;5111709;28;20151;-73
2021/06/09 04:21:54;;;;;;;19.63;17.63;;;13.70;99.90;;;;;;5111861;28;20036;-73
2021/06/09 04:24:20;;;;;;;18.23;16.42;;;13.80;99.90;;;;;;5111783;28;20046;-73
2021/06/09 04:26:48;;;;;;;19.17;17.38;;;13.80;99.90;;;;;;5111834;28;20499;-73
2021/06/09 04:29:15;;;;;;;15.65;14.20;;;13.90;99.90;;;;;;5111783;28;20040;-73
2021/06/09 04:31:41;;;;;;;17.00;15.40;;;14.00;99.90;;;;;;5093493;28;20044;-73
2021/06/09 04:34:07;;;;;;;17.98;16.17;;;14.00;99.90;;;;;;5093486;28;20036;-73
2021/06/09 04:36:33;;;;;;;22.05;19.77;;;14.00;99.90;;;;;;5111588;28;20316;-73
2021/06/09 04:38:58;;;;;;;22.83;20.42;;;14.00;99.90;;;;;;5111480;28;20047;-72
2021/06/09 04:41:26;;;;;;;21.20;19.00;;;14.00;99.90;;;;;;5111440;28;20579;-73
2021/06/09 04:43:53;;;;;;;21.42;19.27;;;14.10;99.90;;;;;;5093464;28;20035;-73
2021/06/09 04:46:22;;;;;;;21.95;19.85;;;14.10;99.90;;;;;;5093149;28;20035;-73
2021/06/09 04:49:14;;;;;;;21.55;19.20;;;14.20;99.90;;;;;;5093122;28;20036;-71
2021/06/09 04:51:40;;;;;;;22.25;20.05;;;14.30;99.90;;;;;;5108325;28;20458;-73
2021/06/09 04:54:07;;;;;;;23.80;21.42;;;14.40;99.90;;;;;;5111258;28;20039;-73
2021/06/09 04:56:35;;;;;;;23.95;21.42;;;14.50;99.90;;;;;;5111142;28;20040;-73
2021/06/09 04:59:06;;;;;;;23.25;20.95;;;14.60;99.90;;;;;;5111133;28;20035;-73
2021/06/09 05:01:36;;;;;;;23.67;21.27;;;14.70;99.90;;;;;;5110953;28;20173;-73
2021/06/09 05:04:01;;;;;;;23.25;20.95;;;14.80;99.90;;;;;;5092960;28;20088;-73
2021/06/09 05:06:27;;;;;;;24.58;22.05;;;15.00;99.90;;;;;;5093054;28;20044;-73
2021/06/09 05:08:54;;;;;;;22.33;20.13;;;15.10;99.90;;;;;;5111678;28;20062;-73
2021/06/09 05:11:41;;;;;;;23.27;20.85;;;15.20;99.90;;;;;;5110916;28;20039;-73
2021/06/09 05:14:14;;;;;;;22.10;19.83;;;15.40;99.90;;;;;;5110269;28;20085;-73
2021/06/09 05:16:42;;;;;;;21.58;19.58;;;15.50;99.90;;;;;;5092629;28;20107;-73
2021/06/09 05:19:09;;;;;;;21.05;19.05;;;15.60;99.90;;;;;;5110887;28;20538;-73
2021/06/09 05:21:38;;;;;;;21.73;19.63;;;15.70;99.90;;;;;;5110827;28;20035;-73
2021/06/09 05:24:07;;;;;;;19.98;18.10;;;15.80;99.90;;;;;;5110791;28;20090;-73
2021/06/09 05:26:34;;;;;;;19.65;17.67;;;16.00;99.90;;;;;;5110598;28;20036;-73
2021/06/09 05:29:06;;;;;;;19.50;17.70;;;16.20;99.90;;;;;;5110755;28;20077;-73
2021/06/09 05:31:32;;;;;;;19.67;17.88;;;16.40;99.90;;;;;;5110780;28;20498;-73
2021/06/09 05:34:01;;;;;;;18.73;17.02;;;16.60;99.90;;;;;;5110739;28;20504;-73
2021/06/09 05:36:29;;;;;;;18.98;17.08;;;16.70;99.90;;;;;;5092413;28;20042;-72
2021/06/09 05:38:57;;;;;;;18.85;17.15;;;16.80;99.90;;;;;;5110483;28;20544;-72
2021/06/09 05:41:24;;;;;;;17.90;16.13;;;16.90;99.90;;;;;;5110709;28;20063;-73
2021/06/09 05:43:50;;;;;;;17.73;16.05;;;17.10;99.90;;;;;;5110688;28;20058;-73
2021/06/09 05:46:19;;;;;;;17.48;15.85;;;17.30;99.90;;;;;;5110591;28;20039;-73
2021/06/09 05:48:47;;;;;;;16.23;14.63;;;18.10;99.90;;;;;;5110634;28;20508;-73
2021/06/09 05:51:15;;;;;;;16.10;14.40;;;19.30;98.50;;;;;;5110418;28;20070;-73
2021/06/09 05:53:41;;;;;;;14.77;13.23;;;20.50;96.80;;;;;;5110516;28;20127;-73
2021/06/09 05:56:09;;;;;;;12.57;11.48;;;21.70;95.70;;;;;;5110397;28;20043;-73
2021/06/09 05:58:38;;;;;;;10.30;9.40;;;22.80;94.50;;;;;;5110631;28;20035;-73
2021/06/09 06:01:10;;;;;;;9.90;9.00;;;23.70;92.10;;;;;;5110331;28;20470;-73
2021/06/09 06:03:38;;;;;;;9.15;8.35;;;24.60;86.90;;;;;;5110350;28;20508;-73
2021/06/09 06:06:14;;;;;;;9.23;8.45;;;25.30;88.10;;;;;;5110307;28;20487;-73
2021/06/09 06:08:44;;;;;;;9.43;8.63;;;25.90;74.90;;;;;;5110407;28;20405;-73
2021/06/09 06:11:12;;;;;;;8.98;8.27;;;26.50;81.70;;;;;;5110214;28;20089;-73
2021/06/09 06:13:39;;;;;;;8.93;8.15;;;27.10;77.90;;;;;;5110717;28;20111;-73
2021/06/09 06:16:06;;;;;;;9.23;8.52;;;27.50;74.20;;;;;;5110266;28;20450;-73
2021/06/09 06:18:52;;;;;;;8.88;8.07;;;27.20;64.80;;;;;;5095041;28;20481;-73
2021/06/09 06:21:19;;;;;;;8.68;7.97;;;27.30;64.20;;;;;;5110146;28;20043;-73
2021/06/09 06:23:45;;;;;;;8.25;7.55;;;27.50;65.80;;;;;;5110281;28;20089;-73
2021/06/09 06:26:16;;;;;;;8.70;8.00;;;28.10;65.50;;;;;;5111757;28;20043;-73
2021/06/09 06:28:42;;;;;;;9.48;7.50;;;27.90;59.00;;;;;;5095619;28;20643;-73
2021/06/09 06:31:14;;;;;;;8.48;7.72;;;28.20;62.10;;;;;;5114241;28;20071;-73
2021/06/09 06:33:45;;;;;;;7.45;6.78;;;28.20;58.10;;;;;;5113983;28;20378;-73
2021/06/09 06:36:14;;;;;;;8.05;7.32;;;29.00;60.70;;;;;;5113938;28;20042;-73
2021/06/09 06:38:41;;;;;;;8.30;7.50;;;29.30;56.20;;;;;;5114248;28;20114;-73
2021/06/09 06:41:09;;;;;;;7.80;7.18;;;29.70;57.60;;;;;;5113449;28;20493;-73
2021/06/09 06:43:36;;;;;;;6.93;6.43;;;29.60;56.40;;;;;;5113618;28;20474;-73
2021/06/09 06:46:09;;;;;;;6.90;6.38;;;29.20;53.50;;;;;;5095487;28;20057;-73
2021/06/09 06:48:35;;;;;;;6.65;6.10;;;29.40;53.00;;;;;;5095425;28;20035;-73
2021/06/09 06:51:01;;;;;;;6.40;5.82;;;29.60;50.70;;;;;;5113635;28;20063;-73
2021/06/09 06:53:27;;;;;;;5.88;5.38;;;29.70;50.20;;;;;;5113503;28;20035;-73
2021/06/09 06:55:59;;;;;;;5.78;5.28;;;29.90;52.50;;;;;;5113625;28;20094;-73
2021/06/09 06:58:30;;;;;;;5.93;5.53;;;30.20;49.40;;;;;;5113325;28;20493;-73
2021/06/09 07:00:57;;;;;;;4.88;4.50;;;29.60;48.60;;;;;;5113285;28;20054;-74
2021/06/09 07:03:24;;;;;;;5.93;5.43;;;30.10;50.30;;;;;;5113376;28;20027;-74
2021/06/09 07:05:51;;;;;;;5.15;4.75;;;30.60;49.50;;;;;;5113462;28;20112;-73
2021/06/09 07:08:17;;;;;;;5.93;5.38;;;31.00;48.50;;;;;;5094988;28;20040;-73
2021/06/09 07:10:42;;;;;;;4.88;4.47;;;30.80;47.30;;;;;;5113331;28;20055;-74
2021/06/09 07:13:09;;;;;;;5.63;5.13;;;31.00;48.10;;;;;;5113104;28;20035;-73
2021/06/09 07:15:39;;;;;;;5.55;5.13;;;31.10;47.80;;;;;;5113158;28;20044;-73
2021/06/09 07:18:06;;;;;;;5.15;4.75;;;30.80;45.20;;;;;;5113077;28;20042;-74
2021/06/09 07:20:32;;;;;;;5.00;4.60;;;30.60;47.00;;;;;;5112817;28;20042;-73
2021/06/09 07:22:59;;;;;;;4.63;4.22;;;31.00;45.50;;;;;;5112856;28;20476;-73
2021/06/09 07:25:28;;;;;;;4.13;3.83;;;31.40;48.60;;;;;;5094639;28;20040;-74
2021/06/09 07:27:58;;;;;;;4.65;4.20;;;31.80;46.80;;;;;;5112749;28;20039;-74
2021/06/09 07:30:27;;;;;;;;;;;32.40;45.80;;;;;;5113494;28;20079;-73
2021/06/09 07:32:53;;;;;;;4.05;3.65;;;32.20;43.00;;;;;;5112719;28;20344;-74
2021/06/09 07:35:19;;;;;;;4.70;4.13;;;32.40;45.60;;;;;;5112666;28;20122;-74
2021/06/09 07:37:47;;;;;;;4.22;3.38;;;32.10;46.20;;;;;;5111885;28;20426;-74
2021/06/09 07:40:18;;;;;;;4.22;3.90;;;32.60;46.90;;;;;;5112476;28;20178;-74
2021/06/09 07:42:48;;;;;;;4.00;3.70;;;32.70;42.50;;;;;;5112705;28;20036;-74
2021/06/09 07:45:16;;;;;;;4.03;3.70;;;31.40;43.70;;;;;;5094400;28;20040;-74
2021/06/09 07:47:55;;;;;;;4.35;3.95;;;31.60;44.00;;;;;;5118381;28;20036;-74
2021/06/09 07:50:39;;;;;;;3.75;3.33;;;31.60;42.60;;;;;;5094383;28;20070;-73
2021/06/09 07:53:07;;;;;;;5.22;3.28;;;31.80;43.40;;;;;;5094210;28;20035;-74
2021/06/09 07:55:36;;;;;;;2.90;2.70;;;32.20;44.80;;;;;;5094350;28;20059;-74
2021/06/09 07:58:05;;;;;;;3.97;3.67;;;31.90;44.70;;;;;;5112210;28;20047;-75
2021/06/09 08:00:33;;;;;;;4.57;4.18;;;32.40;44.70;;;;;;5112248;28;20035;-74
2021/06/09 08:03:01;;;;;;;4.50;4.10;;;32.30;42.70;;;;;;5112474;28;20047;-73
2021/06/09 08:05:29;;;;;;;4.72;4.25;;;32.50;44.10;;;;;;5112094;28;20553;-73
2021/06/09 08:07:55;;;;;;;4.28;3.97;;;31.80;42.20;;;;;;5112135;28;20393;-73
2021/06/09 08:10:22;;;;;;;5.78;5.28;;;31.90;44.00;;;;;;5112032;28;20465;-73
2021/06/09 08:12:53;;;;;;;4.65;4.25;;;31.10;41.90;;;;;;5112007;28;20035;-73
2021/06/09 08:15:19;;;;;;;5.22;4.63;;;29.90;45.40;;;;;;5111863;28;20044;-72
2021/06/09 08:17:51;;;;;;;4.28;3.78;;;29.30;47.00;;;;;;5094510;28;20035;-73
2021/06/09 08:20:20;;;;;;;6.35;5.75;;;28.80;49.90;;;;;;5111729;28;20035;-73
2021/06/09 08:22:46;;;;;;;5.80;5.32;;;28.70;50.20;;;;;;5112098;28;20051;-73
2021/06/09 08:25:14;;;;;;;9.18;5.90;;;28.50;50.20;;;;;;5111618;28;20035;-74
2021/06/09 08:27:40;;;;;;;7.50;6.80;;;28.40;51.30;;;;;;5111951;28;20043;-73
2021/06/09 08:30:09;;;;;;;7.97;7.32;;;28.30;50.90;;;;;;5111608;28;20084;-73
2021/06/09 08:32:35;;;;;;;9.18;8.32;;;28.10;51.20;;;;;;5112220;28;20067;-73
2021/06/09 08:35:04;;;;;;;8.65;7.78;;;27.30;52.20;;;;;;5093299;28;20044;-73
2021/06/09 08:37:33;;;;;;;9.25;8.45;;;27.30;53.70;;;;;;5111523;28;20031;-74
2021/06/09 08:39:59;;;;;;;8.95;8.15;;;27.30;55.20;;;;;;5093016;28;20048;-74
2021/06/09 08:42:25;;;;;;;8.65;7.88;;;27.10;56.10;;;;;;5093337;28;20446;-73
2021/06/09 08:44:52;;;;;;;10.10;9.15;;;26.90;57.50;;;;;;5111265;28;20066;-74
2021/06/09 08:47:19;;;;;;;10.45;9.63;;;26.90;56.90;;;;;;5111393;28;20039;-73
2021/06/09 08:49:45;;;;;;;8.57;7.88;;;26.90;57.60;;;;;;5110970;28;20031;-73
2021/06/09 08:52:13;;;;;;;10.13;9.25;;;26.90;57.90;;;;;;5111186;28;20046;-73
2021/06/09 08:54:47;;;;;;;9.45;8.50;;;26.90;56.70;;;;;;5092915;28;20074;-73
2021/06/09 08:57:14;;;;;;;8.95;8.20;;;26.90;57.40;;;;;;5111184;28;20073;-74
2021/06/09 08:59:43;;;;;;;9.68;8.98;;;26.70;57.90;;;;;;5092846;28;20035;-74
2021/06/09 09:02:09;;;;;;;11.13;10.18;;;26.70;57.40;;;;;;5092733;28;20051;-74
2021/06/09 09:04:37;;;;;;;9.65;8.82;;;26.60;57.70;;;;;;5110975;28;20480;-74
2021/06/09 09:07:10;;;;;;;9.30;8.50;;;26.60;57.80;;;;;;5111067;28;20180;-74
2021/06/09 09:09:37;;;;;;;9.32;8.15;;;26.50;59.80;;;;;;5110866;28;20118;-74
2021/06/09 09:12:05;;;;;;;10.20;9.32;;;26.50;60.10;;;;;;5110922;28;20124;-74
2021/06/09 09:14:33;;;;;;;11.10;10.10;;;26.60;58.60;;;;;;5110770;28;20108;-74
2021/06/09 09:17:01;;;;;;;10.02;9.13;;;26.60;59.80;;;;;;5092760;28;20138;-74
2021/06/09 09:19:33;;;;;;;9.98;8.95;;;26.50;60.90;;;;;;5110646;28;20080;-75
2021/06/09 09:21:59;;;;;;;8.88;8.18;;;26.50;60.60;;;;;;5110869;28;20043;-74
2021/06/09 09:24:44;;;;;;;9.55;8.65;;;26.30;62.30;;;;;;5110886;28;20039;-74
2021/06/09 09:27:13;;;;;;;;;;;26.40;61.80;;;;;;5111244;28;20035;-74
2021/06/09 09:29:39;;;;;;;9.27;8.48;;;26.30;61.70;;;;;;5110633;28;19927;-74
2021/06/09 09:32:07;;;;;;;8.00;7.28;;;26.30;63.60;;;;;;5110691;28;20040;-74
2021/06/09 09:34:51;;;;;;;8.02;7.10;;;26.30;64.30;;;;;;5110771;28;20119;-74
2021/06/09 09:37:20;;;;;;;8.23;7.43;;;26.40;65.00;;;;;;5110659;28;20473;-74
2021/06/09 09:40:13;;;;;;;9.90;8.93;;;26.60;63.40;;;;;;5110407;28;20046;-74
2021/06/09 09:42:40;;;;;;;9.55;8.65;;;26.70;58.70;;;;;;5092536;28;20047;-74
2021/06/09 09:45:19;;;;;;;9.52;8.52;;;26.50;60.00;;;;;;5110475;28;20117;-74
2021/06/09 09:48:04;;;;;;;9.02;8.13;;;26.70;60.90;;;;;;5110618;28;20388;-72
2021/06/09 09:50:31;;;;;;;9.30;8.57;;;26.80;58.90;;;;;;5110342;28;20038;-72
2021/06/09 09:52:57;;;;;;;9.93;9.02;;;27.00;58.40;;;;;;5110474;28;20397;-73
2021/06/09 09:55:23;;;;;;;9.23;8.38;;;27.20;57.70;;;;;;5110441;28;20114;-73
2021/06/09 09:57:49;;;;;;;9.60;8.35;;;27.20;58.60;;;;;;5110494;28;20059;-73
2021/06/09 10:00:31;;;;;;;9.43;8.63;;;27.50;57.50;;;;;;5110319;28;20093;-73
2021/06/09 10:03:14;;;;;;;10.40;9.50;;;27.60;56.20;;;;;;5114581;28;20419;-73
2021/06/09 10:05:40;;;;;;;7.85;7.15;;;27.50;54.70;;;;;;5096236;28;20038;-74
2021/06/09 10:08:08;;;;;;;9.82;9.07;;;27.30;56.30;;;;;;5096264;28;20039;-74
2021/06/09 10:10:34;;;;;;;9.77;8.88;;;27.30;57.20;;;;;;5114284;28;20392;-73
2021/06/09 10:13:16;;;;;;;9.43;8.63;;;26.70;57.10;;;;;;5114410;28;20049;-74
2021/06/09 10:15:51;;;;;;;11.57;9.13;;;27.00;59.50;;;;;;5114162;28;20050;-74
2021/06/09 10:18:20;;;;;;;10.38;9.48;;;27.20;58.00;;;;;;5114346;28;20582;-74
2021/06/09 10:20:48;;;;;;;12.55;11.20;;;27.10;58.10;;;;;;5095738;28;20102;-74
2021/06/09 10:23:37;;;;;;;10.77;9.10;;;27.10;56.50;;;;;;5095882;28;20046;-74
2021/06/09 10:26:08;;;;;;;10.52;9.57;;;27.00;57.50;;;;;;5114415;28;20043;-74
2021/06/09 10:29:02;;;;;;;11.18;10.18;;;27.00;59.00;;;;;;5096087;28;20611;-74
2021/06/09 10:31:40;;;;;;;11.77;10.68;;;27.20;59.60;;;;;;5113902;28;20126;-74
2021/06/09 10:34:06;;;;;;;10.13;9.35;;;27.10;56.30;;;;;;5113951;28;20075;-74
2021/06/09 10:36:39;;;;;;;10.30;9.40;;;27.00;58.10;;;;;;5113836;28;20077;-74
2021/06/09 10:39:06;;;;;;;13.00;10.18;;;27.00;58.20;;;;;;5113829;28;20082;-74
2021/06/09 10:41:33;;;;;;;11.82;10.93;;;27.30;57.60;;;;;;5113584;28;20043;-73
2021/06/09 10:44:03;;;;;;;11.95;10.95;;;27.50;56.50;;;;;;5095588;28;20028;-74
2021/06/09 10:46:30;;;;;;;10.40;9.48;;;27.70;56.00;;;;;;5113568;28;20042;-74
2021/06/09 10:49:00;;;;;;;11.95;10.95;;;28.00;56.10;;;;;;5095506;28;20469;-73
2021/06/09 10:51:30;;;;;;;12.18;11.15;;;28.10;55.40;;;;;;5095294;28;20092;-73
2021/06/09 10:53:59;;;;;;;11.93;10.98;;;28.40;55.40;;;;;;5113626;28;20040;-73
2021/06/09 10:56:26;;;;;;;10.80;9.82;;;28.20;54.30;;;;;;5113464;28;20036;-73
2021/06/09 10:58:52;;;;;;;10.30;9.40;;;28.10;55.20;;;;;;5113489;28;20410;-73
2021/06/09 11:01:24;;;;;;;10.60;9.70;;;28.10;55.30;;;;;;5113280;28;20035;-73
2021/06/09 11:03:55;;;;;;;10.10;9.20;;;28.20;55.30;;;;;;5095025;28;20477;-73
2021/06/09 11:06:55;;;;;;;11.10;10.10;;;28.30;56.60;;;;;;5113375;28;20124;-73
2021/06/09 11:09:25;;;;;;;10.13;9.18;;;28.00;53.40;;;;;;5079683;28;20503;-73
2021/06/09 11:12:12;;;;;;;9.18;8.48;;;27.90;53.10;;;;;;5112238;28;20100;-73
2021/06/09 11:14:58;;;;;;;11.30;10.40;;;27.70;56.70;;;;;;5113289;28;20074;-75
2021/06/09 11:17:53;;;;;;;11.45;10.45;;;27.60;56.90;;;;;;5112889;28;20484;-75
2021/06/09 11:20:32;;;;;;;11.52;10.55;;;27.50;56.30;;;;;;5106355;28;20047;-74
2021/06/09 11:23:04;;;;;;;10.63;9.70;;;27.40;57.70;;;;;;5113015;28;20070;-74
2021/06/09 11:25:43;;;;;;;10.98;9.57;;;27.30;58.90;;;;;;5112958;28;20042;-74
2021/06/09 11:28:38;;;;;;;11.13;10.23;;;27.20;59.00;;;;;;5113354;28;20188;-74
2021/06/09 11:31:20;;;;;;;10.88;9.82;;;27.00;60.00;;;;;;5113077;28;20043;-74
2021/06/09 11:33:53;;;;;;;11.75;10.75;;;26.90;60.50;;;;;;5112758;28;20039;-74
2021/06/09 11:36:19;;;;;;;11.02;9.95;;;26.80;60.50;;;;;;5112900;28;20046;-74
2021/06/09 11:38:48;;;;;;;10.75;9.85;;;26.80;60.90;;;;;;5112577;28;20385;-77
2021/06/09 11:41:19;;;;;;;11.05;10.18;;;26.80;61.00;;;;;;5112787;28;20104;-74
2021/06/09 11:43:49;;;;;;;11.30;10.38;;;26.80;61.90;;;;;;5112851;28;20036;-74
2021/06/09 11:46:22;;;;;;;13.23;12.10;;;26.90;62.00;;;;;;5112893;28;20140;-74
2021/06/09 11:49:11;;;;;;;13.45;12.35;;;26.80;58.70;;;;;;5094198;28;20042;-74
2021/06/09 11:51:39;;;;;;;13.30;11.98;;;27.00;59.40;;;;;;5112547;28;20058;-75
2021/06/09 11:54:18;;;;;;;11.13;10.10;;;27.20;58.70;;;;;;5123452;22;20030;-63
2021/06/09 11:56:45;;;;;;;11.93;10.95;;;27.50;60.10;;;;;;5092140;28;20044;-63
2021/06/09 11:59:30;;;;;;;14.43;13.00;;;27.70;59.60;;;;;;5091860;28;20036;-63
2021/06/09 12:01:59;;;;;;;12.93;11.77;;;27.90;57.90;;;;;;5091828;28;20075;-63
2021/06/09 12:04:39;;;;;;;13.43;12.23;;;28.00;58.20;;;;;;5091708;28;20039;-63
2021/06/09 12:07:08;;;;;;;12.60;11.60;;;27.80;55.80;;;;;;5092048;28;20063;-63
2021/06/09 12:09:43;;;;;;;12.27;11.07;;;27.70;58.00;;;;;;5091618;28;20036;-63
2021/06/09 12:12:23;;;;;;;12.25;11.25;;;27.60;58.10;;;;;;5091683;28;20044;-63
2021/06/09 12:14:50;;;;;;;13.75;12.48;;;27.50;58.90;;;;;;5091868;28;20109;-63
2021/06/09 12:17:28;;;;;;;14.45;13.15;;;27.20;57.30;;;;;;5091620;28;20047;-63
2021/06/09 12:20:11;;;;;;;12.05;10.95;;;26.90;57.40;;;;;;5091557;28;20044;-63
2021/06/09 12:22:57;;;;;;;13.95;12.85;;;26.90;60.70;;;;;;5073145;28;20052;-63
2021/06/09 12:25:27;;;;;;;16.65;15.15;;;26.90;63.60;;;;;;5091199;28;20114;-63
2021/06/09 12:28:03;;;;;;;15.50;14.15;;;26.90;60.90;;;;;;5091189;28;20082;-63
2021/06/09 12:30:30;;;;;;;14.27;13.07;;;26.80;59.80;;;;;;5091389;28;20451;-63
2021/06/09 12:32:56;;;;;;;13.80;12.70;;;26.70;60.70;;;;;;5091226;28;20090;-64
2021/06/09 12:35:22;;;;;;;15.25;13.75;;;26.60;61.70;;;;;;5091243;28;20063;-63
2021/06/09 12:37:52;;;;;;;12.70;11.68;;;26.60;61.70;;;;;;5091131;28;20040;-62
2021/06/09 12:40:27;;;;;;;14.75;13.43;;;26.80;61.40;;;;;;5091707;28;20036;-63
2021/06/09 12:42:59;;;;;;;13.55;12.25;;;26.90;61.50;;;;;;5091060;28;20047;-63
2021/06/09 12:45:30;;;;;;;13.10;12.00;;;27.00;61.00;;;;;;5091064;28;20106;-63
2021/06/09 12:48:06;;;;;;;14.18;12.93;;;27.00;61.00;;;;;;5090988;28;20075;-63
2021/06/09 12:50:37;;;;;;;12.18;11.20;;;27.10;60.20;;;;;;5091181;28;20051;-62
2021/06/09 12:53:09;;;;;;;11.45;10.38;;;27.00;58.90;;;;;;5091288;28;20143;-63